9°C Temp
7°C Dewpoint
87% Humidity
Temperature
19 KM/H
12 MPH
10 KTS
200°
South South
West

Wind Speed
Partly Cloudy
Conditions
Pressure 1013.92 (hPa) - 29.94 (in)
Visibility 6.2 (mi) - 10.0 (km)

Current Conditions
EGTK
Location Oxford (Kidlington) 26(mi)
Metar :EGTK 172020Z 20010KT 9999 FEW020 09/07 Q1014
Thu 1st January 01:00 am

Airport
  Metar Aviation API Data Provided by https://www.checkwx.com/ PHP scripts by weather34.com ©2019